createdAt,value
2018-11-07T00:05:02.265Z,28.50
2018-11-07T00:10:07.630Z,28.47
2018-11-07T00:15:14.315Z,27.67
2018-11-07T00:20:18.533Z,30.37
2018-11-07T00:25:22.734Z,34.90
2018-11-07T00:30:26.770Z,33.33
2018-11-07T00:35:30.729Z,30.63
2018-11-07T00:40:34.599Z,30.30
2018-11-07T00:45:38.547Z,29.07
2018-11-07T00:50:42.396Z,27.03
2018-11-07T00:55:46.383Z,31.17
2018-11-07T01:00:50.157Z,29.90
2018-11-07T01:05:54.134Z,28.83
2018-11-07T01:10:58.032Z,30.00
2018-11-07T01:16:02.009Z,25.03
2018-11-07T01:21:05.945Z,25.47
2018-11-07T01:26:09.932Z,24.80
2018-11-07T01:31:13.957Z,29.63
2018-11-07T01:36:17.872Z,26.67
2018-11-07T01:41:21.760Z,24.07
2018-11-07T01:46:25.627Z,28.97
2018-11-07T01:51:29.580Z,27.80
2018-11-07T01:56:33.698Z,24.77
2018-11-07T02:01:37.534Z,27.27
2018-11-07T02:06:41.440Z,30.07
2018-11-07T02:11:45.553Z,30.47
2018-11-07T02:16:49.401Z,30.33
2018-11-07T02:21:53.180Z,33.13
2018-11-07T02:26:57.060Z,30.93
2018-11-07T02:32:01.075Z,30.63
2018-11-07T02:37:05.313Z,32.63
2018-11-07T02:42:09.058Z,33.10
2018-11-07T02:47:13.060Z,33.23
2018-11-07T02:52:16.862Z,34.47
2018-11-07T02:57:20.765Z,34.53
2018-11-07T03:02:24.623Z,32.17
2018-11-07T03:07:28.351Z,33.80
2018-11-07T03:12:32.791Z,31.47
2018-11-07T03:17:36.811Z,32.30
2018-11-07T03:22:40.715Z,31.80
2018-11-07T03:27:44.642Z,34.13
2018-11-07T03:32:48.665Z,30.77
2018-11-07T03:37:52.677Z,34.27
2018-11-07T03:42:56.499Z,33.17
2018-11-07T03:48:00.314Z,32.90
2018-11-07T03:53:04.232Z,35.00
2018-11-07T03:58:08.098Z,32.97
2018-11-07T04:03:11.938Z,32.33
2018-11-07T04:08:15.774Z,36.73
2018-11-07T04:13:20.045Z,33.07
2018-11-07T04:18:23.883Z,32.07
2018-11-07T04:23:27.661Z,34.70
2018-11-07T04:28:31.674Z,34.70
2018-11-07T04:33:35.558Z,32.43
2018-11-07T04:38:39.426Z,35.30
2018-11-07T04:43:43.258Z,34.53
2018-11-07T04:48:46.855Z,34.00
2018-11-07T04:53:50.710Z,35.37
2018-11-07T04:58:54.400Z,38.70
2018-11-07T05:03:58.177Z,31.73
2018-11-07T05:09:02.023Z,33.10
2018-11-07T05:14:05.757Z,32.93
2018-11-07T05:19:09.566Z,33.67
2018-11-07T05:24:13.111Z,34.43
2018-11-07T05:29:16.755Z,37.27
2018-11-07T05:34:20.563Z,32.00
2018-11-07T05:39:24.296Z,36.28
2018-11-07T05:44:28.045Z,32.43
2018-11-07T05:49:31.790Z,46.67
2018-11-07T05:54:35.467Z,39.78
2018-11-07T05:59:39.019Z,38.13
2018-11-07T06:04:42.481Z,33.90
2018-11-07T06:09:46.017Z,34.13
2018-11-07T06:14:49.405Z,36.90
2018-11-07T06:19:52.734Z,38.27
2018-11-07T06:24:56.166Z,41.07
2018-11-07T06:29:59.545Z,41.30
2018-11-07T06:35:03.208Z,39.43
2018-11-07T06:40:08.179Z,37.47
2018-11-07T06:45:11.866Z,38.15
2018-11-07T06:50:16.006Z,43.70
2018-11-07T06:55:19.394Z,36.87
2018-11-07T07:00:22.715Z,38.53
2018-11-07T07:05:26.102Z,38.63
2018-11-07T07:10:29.446Z,39.30
2018-11-07T07:15:33.275Z,35.33
2018-11-07T07:20:36.688Z,37.47
2018-11-07T07:25:40.099Z,32.33
2018-11-07T07:30:43.435Z,34.77
2018-11-07T07:35:46.759Z,35.63
2018-11-07T07:40:50.100Z,32.33
2018-11-07T07:45:53.446Z,37.13
2018-11-07T07:50:56.838Z,38.53
2018-11-07T07:56:00.366Z,35.70
2018-11-07T08:01:03.783Z,33.13
2018-11-07T08:06:07.102Z,35.80
2018-11-07T08:11:10.478Z,38.07
2018-11-07T08:16:13.941Z,33.13
2018-11-07T08:21:17.292Z,32.33
2018-11-07T08:26:20.633Z,32.60
2018-11-07T08:31:24.040Z,31.30
2018-11-07T08:36:27.464Z,33.37
2018-11-07T08:41:30.877Z,32.30
2018-11-07T08:46:34.259Z,31.53
2018-11-07T08:51:37.583Z,32.70
2018-11-07T08:56:41.071Z,33.60
2018-11-07T09:01:44.404Z,34.40
2018-11-07T09:06:48.267Z,29.27
2018-11-07T09:11:52.068Z,31.17
2018-11-07T09:16:55.731Z,32.93
2018-11-07T09:21:59.524Z,31.80
2018-11-07T09:27:03.545Z,30.00
2018-11-07T09:32:07.239Z,29.93
2018-11-07T09:37:10.975Z,32.27
2018-11-07T09:42:14.686Z,29.73
2018-11-07T09:47:19.265Z,33.07
2018-11-07T09:52:23.653Z,32.33
2018-11-07T09:57:28.263Z,26.00
2018-11-07T10:02:32.814Z,28.93
2018-11-07T10:07:37.289Z,28.90
2018-11-07T10:12:41.645Z,30.37
2018-11-07T10:17:45.409Z,28.30
2018-11-07T10:22:49.370Z,28.57
2018-11-07T10:27:54.060Z,27.20
2018-11-07T10:32:57.359Z,27.80
2018-11-07T10:38:01.009Z,26.77
2018-11-07T10:43:04.218Z,28.27
2018-11-07T10:48:07.538Z,29.90
2018-11-07T10:53:10.928Z,26.37
2018-11-07T10:58:15.116Z,27.43
2018-11-07T11:03:24.393Z,26.30
2018-11-07T11:08:28.811Z,30.50
2018-11-07T11:13:33.100Z,25.77
2018-11-07T11:18:37.669Z,27.53
2018-11-07T11:23:43.028Z,28.47
2018-11-07T11:28:47.421Z,25.60
2018-11-07T11:33:50.975Z,22.60
2018-11-07T11:38:54.370Z,22.40
2018-11-07T11:43:57.698Z,21.62
2018-11-07T11:49:01.007Z,24.18
2018-11-07T11:54:04.371Z,20.30
2018-11-07T11:59:07.883Z,18.80
2018-11-07T12:04:11.097Z,18.42
2018-11-07T12:09:16.123Z,18.48
2018-11-07T12:14:19.538Z,21.95
2018-11-07T12:19:22.872Z,21.70
2018-11-07T12:24:26.177Z,20.02
2018-11-07T12:29:29.589Z,20.27
2018-11-07T12:34:33.389Z,22.30
2018-11-07T12:39:36.694Z,20.85
2018-11-07T12:44:40.092Z,19.95
2018-11-07T12:49:43.586Z,18.82
2018-11-07T12:54:47.018Z,20.82
2018-11-07T12:59:50.543Z,20.88
2018-11-07T13:04:53.883Z,20.15
2018-11-07T13:09:57.223Z,24.30
2018-11-07T13:15:00.665Z,17.98
2018-11-07T13:20:04.686Z,20.17
2018-11-07T13:25:09.688Z,19.35
2018-11-07T13:30:15.042Z,23.20
2018-11-07T13:35:19.068Z,21.93
2018-11-07T13:40:23.759Z,20.70
2018-11-07T13:45:27.177Z,21.52
2018-11-07T13:50:30.557Z,24.35
2018-11-07T13:55:33.986Z,22.95
2018-11-07T14:00:37.395Z,22.80
2018-11-07T14:05:40.988Z,23.53
2018-11-07T14:10:44.174Z,23.02
2018-11-07T14:15:47.706Z,20.57
2018-11-07T14:20:51.035Z,20.97
2018-11-07T14:25:54.430Z,21.17
2018-11-07T14:30:57.832Z,27.80
2018-11-07T14:36:01.337Z,22.93
2018-11-07T14:41:05.169Z,22.33
2018-11-07T14:46:09.082Z,23.63
2018-11-07T14:51:12.538Z,24.23
2018-11-07T14:56:16.075Z,23.62
2018-11-07T15:01:19.631Z,20.87
2018-11-07T15:06:23.255Z,22.52
2018-11-07T15:11:26.632Z,24.60
2018-11-07T15:16:29.999Z,23.80
2018-11-07T15:21:33.328Z,24.23
2018-11-07T15:26:36.764Z,22.07
2018-11-07T15:31:40.142Z,21.77
2018-11-07T15:36:43.492Z,42.80
2018-11-07T15:41:46.958Z,28.17
2018-11-07T15:46:50.575Z,23.10
2018-11-07T15:51:56.056Z,26.07
2018-11-07T15:56:59.498Z,23.13
2018-11-07T16:02:03.123Z,24.40
2018-11-07T16:07:06.662Z,21.23
2018-11-07T16:12:10.211Z,23.97
2018-11-07T16:17:14.531Z,24.53
2018-11-07T16:22:19.051Z,22.70
2018-11-07T16:27:23.493Z,26.43
2018-11-07T16:32:27.391Z,38.83
2018-11-07T16:37:32.560Z,26.97
2018-11-07T16:42:36.335Z,25.30
2018-11-07T16:47:40.934Z,21.20
2018-11-07T16:52:44.719Z,21.17
2018-11-07T16:57:48.127Z,24.97
2018-11-07T17:02:51.605Z,21.73
2018-11-07T17:07:54.979Z,27.80
2018-11-07T17:12:58.431Z,29.67
2018-11-07T17:18:01.810Z,32.13
2018-11-07T17:23:05.396Z,33.07
2018-11-07T17:28:09.031Z,33.95
2018-11-07T17:33:12.861Z,29.03
2018-11-07T17:38:16.826Z,31.10
2018-11-07T17:43:20.584Z,29.30
2018-11-07T17:48:24.191Z,29.93
2018-11-07T17:53:27.558Z,31.27
2018-11-07T17:58:30.899Z,36.07
2018-11-07T18:03:34.759Z,27.40
2018-11-07T18:08:38.523Z,32.20
2018-11-07T18:13:42.101Z,31.87
2018-11-07T18:18:45.697Z,29.90
2018-11-07T18:23:49.052Z,27.40
2018-11-07T18:28:52.526Z,24.93
2018-11-07T18:33:56.710Z,28.43
2018-11-07T18:39:00.234Z,26.70
2018-11-07T18:44:04.343Z,18.63
2018-11-07T18:49:08.529Z,20.43
2018-11-07T18:54:12.277Z,19.80
2018-11-07T18:59:16.186Z,18.57
2018-11-07T19:04:20.238Z,16.23
2018-11-07T19:09:24.419Z,10.47
2018-11-07T19:14:27.864Z,17.13
2018-11-07T19:19:31.221Z,22.97
2018-11-07T19:24:34.754Z,22.00
2018-11-07T19:29:38.065Z,24.60
2018-11-07T19:34:41.457Z,22.03
2018-11-07T19:39:44.964Z,24.17
2018-11-07T19:44:48.329Z,20.77
2018-11-07T19:49:51.655Z,27.17
2018-11-07T19:54:55.042Z,29.33
2018-11-07T19:59:58.394Z,29.07
2018-11-07T20:05:01.733Z,29.33
2018-11-07T20:10:11.204Z,23.67
2018-11-07T20:15:15.631Z,25.80
2018-11-07T20:20:19.070Z,25.60
2018-11-07T20:25:22.419Z,26.87
2018-11-07T20:30:25.718Z,24.97
2018-11-07T20:35:29.121Z,24.90
2018-11-07T20:40:32.395Z,22.23
2018-11-07T20:45:35.951Z,21.27
2018-11-07T20:50:39.314Z,26.10
2018-11-07T20:55:42.651Z,20.33
2018-11-07T21:00:45.974Z,23.77
2018-11-07T21:05:49.443Z,19.20
2018-11-07T21:10:53.109Z,22.90
2018-11-07T21:15:56.539Z,25.67
2018-11-07T21:21:00.047Z,25.03
2018-11-07T21:26:03.424Z,22.57
2018-11-07T21:31:06.828Z,22.77
2018-11-07T21:36:10.158Z,24.00
2018-11-07T21:41:14.195Z,22.43
2018-11-07T21:46:17.913Z,27.87
2018-11-07T21:51:21.510Z,25.20
2018-11-07T21:56:25.106Z,27.57
2018-11-07T22:01:28.648Z,28.33
2018-11-07T22:06:31.998Z,24.73
2018-11-07T22:11:35.387Z,26.63
2018-11-07T22:16:39.270Z,29.00
2018-11-07T22:21:42.627Z,27.63
2018-11-07T22:26:46.085Z,27.60
2018-11-07T22:31:49.468Z,25.50
2018-11-07T22:36:52.911Z,27.03
2018-11-07T22:41:56.345Z,25.50
2018-11-07T22:46:59.665Z,29.57
2018-11-07T22:52:03.009Z,30.17
2018-11-07T22:57:06.986Z,29.33
2018-11-07T23:02:10.391Z,29.97
2018-11-07T23:07:13.771Z,27.93
2018-11-07T23:12:17.177Z,28.90
2018-11-07T23:17:20.498Z,30.00
2018-11-07T23:22:23.822Z,30.00
2018-11-07T23:27:27.148Z,30.73
2018-11-07T23:32:30.458Z,30.70
2018-11-07T23:37:33.931Z,34.27
2018-11-07T23:42:37.378Z,33.93
2018-11-07T23:47:40.779Z,31.80
2018-11-07T23:52:47.231Z,31.73
2018-11-07T23:57:51.261Z,34.23
